sensor_id;sensor_type;location;lat;lon;timestamp;pressure;altitude;pressure_sealevel;temperature;humidity
76611;BME280;65503;48.534;9.062;2022-12-18T00:02:11;97981.84;;;-7.24;63.93
76611;BME280;65503;48.534;9.062;2022-12-18T00:04:38;97990.59;;;-7.14;63.08
76611;BME280;65503;48.534;9.062;2022-12-18T00:07:04;98003.03;;;-7.36;63.09
76611;BME280;65503;48.534;9.062;2022-12-18T00:09:31;98002.13;;;-7.35;62.72
76611;BME280;65503;48.534;9.062;2022-12-18T00:12:06;97998.41;;;-7.58;63.56
76611;BME280;65503;48.534;9.062;2022-12-18T00:14:41;98002.31;;;-7.53;63.35
76611;BME280;65503;48.534;9.062;2022-12-18T00:17:08;98001.66;;;-7.56;63.56
76611;BME280;65503;48.534;9.062;2022-12-18T00:19:34;97994.47;;;-7.64;63.20
76611;BME280;65503;48.534;9.062;2022-12-18T00:22:01;97997.47;;;-7.71;63.02
76611;BME280;65503;48.534;9.062;2022-12-18T00:24:28;97994.94;;;-7.71;63.13
76611;BME280;65503;48.534;9.062;2022-12-18T00:26:54;97994.84;;;-7.70;62.52
76611;BME280;65503;48.534;9.062;2022-12-18T00:29:21;97992.47;;;-7.87;62.89
76611;BME280;65503;48.534;9.062;2022-12-18T00:31:47;97990.06;;;-8.04;63.62
76611;BME280;65503;48.534;9.062;2022-12-18T00:34:14;97995.31;;;-8.65;64.56
76611;BME280;65503;48.534;9.062;2022-12-18T00:36:41;98010.38;;;-8.61;64.78
76611;BME280;65503;48.534;9.062;2022-12-18T00:39:08;98003.66;;;-8.48;64.15
76611;BME280;65503;48.534;9.062;2022-12-18T00:41:35;98003.72;;;-8.33;64.00
76611;BME280;65503;48.534;9.062;2022-12-18T00:44:21;97992.56;;;-8.47;63.73
76611;BME280;65503;48.534;9.062;2022-12-18T00:46:47;97993.72;;;-8.52;63.19
76611;BME280;65503;48.534;9.062;2022-12-18T00:49:16;97991.09;;;-8.51;63.34
76611;BME280;65503;48.534;9.062;2022-12-18T00:51:45;97996.00;;;-8.48;63.40
76611;BME280;65503;48.534;9.062;2022-12-18T00:54:11;97991.25;;;-8.54;63.52
76611;BME280;65503;48.534;9.062;2022-12-18T00:56:38;97998.66;;;-8.49;63.42
76611;BME280;65503;48.534;9.062;2022-12-18T00:59:14;97991.59;;;-8.60;63.22
76611;BME280;65503;48.534;9.062;2022-12-18T01:01:41;97994.13;;;-8.60;63.28
76611;BME280;65503;48.534;9.062;2022-12-18T01:04:09;98010.19;;;-8.58;63.08
76611;BME280;65503;48.534;9.062;2022-12-18T01:06:35;98017.47;;;-8.66;63.34
76611;BME280;65503;48.534;9.062;2022-12-18T01:09:02;98005.78;;;-8.70;63.23
76611;BME280;65503;48.534;9.062;2022-12-18T01:11:29;98008.00;;;-8.80;63.29
76611;BME280;65503;48.534;9.062;2022-12-18T01:13:56;98008.41;;;-8.87;63.54
76611;BME280;65503;48.534;9.062;2022-12-18T01:16:25;98009.59;;;-8.77;63.43
76611;BME280;65503;48.534;9.062;2022-12-18T01:18:53;97998.22;;;-8.71;63.68
76611;BME280;65503;48.534;9.062;2022-12-18T01:21:22;98004.31;;;-8.74;63.37
76611;BME280;65503;48.534;9.062;2022-12-18T01:23:53;98002.66;;;-8.75;63.39
76611;BME280;65503;48.534;9.062;2022-12-18T01:26:20;98006.28;;;-8.79;63.04
76611;BME280;65503;48.534;9.062;2022-12-18T01:28:47;98007.38;;;-8.83;62.93
76611;BME280;65503;48.534;9.062;2022-12-18T01:31:26;98006.78;;;-8.88;63.13
76611;BME280;65503;48.534;9.062;2022-12-18T01:33:53;97999.88;;;-8.86;63.42
76611;BME280;65503;48.534;9.062;2022-12-18T01:36:23;98008.75;;;-8.93;63.12
76611;BME280;65503;48.534;9.062;2022-12-18T01:38:50;98018.94;;;-8.93;63.13
76611;BME280;65503;48.534;9.062;2022-12-18T01:41:19;98015.00;;;-8.83;63.49
76611;BME280;65503;48.534;9.062;2022-12-18T01:43:55;98017.78;;;-8.72;63.36
76611;BME280;65503;48.534;9.062;2022-12-18T01:46:24;98019.34;;;-8.69;63.28
76611;BME280;65503;48.534;9.062;2022-12-18T01:48:55;98025.81;;;-8.64;62.83
76611;BME280;65503;48.534;9.062;2022-12-18T01:51:23;98018.75;;;-8.59;62.91
76611;BME280;65503;48.534;9.062;2022-12-18T01:53:50;98023.19;;;-8.62;62.71
76611;BME280;65503;48.534;9.062;2022-12-18T01:56:19;98007.31;;;-8.52;62.61
76611;BME280;65503;48.534;9.062;2022-12-18T01:58:59;98010.03;;;-8.55;62.56
76611;BME280;65503;48.534;9.062;2022-12-18T02:01:29;98009.81;;;-8.66;63.02
76611;BME280;65503;48.534;9.062;2022-12-18T02:04:23;98008.88;;;-8.65;62.54
76611;BME280;65503;48.534;9.062;2022-12-18T02:13:06;98014.47;;;-8.58;62.04
76611;BME280;65503;48.534;9.062;2022-12-18T02:18:41;97998.31;;;-8.73;62.48
76611;BME280;65503;48.534;9.062;2022-12-18T02:21:36;98005.78;;;-8.70;62.97
76611;BME280;65503;48.534;9.062;2022-12-18T02:24:18;98014.84;;;-8.80;62.62
76611;BME280;65503;48.534;9.062;2022-12-18T02:26:55;98015.00;;;-8.83;62.94
76611;BME280;65503;48.534;9.062;2022-12-18T02:29:26;98016.16;;;-8.73;62.78
76611;BME280;65503;48.534;9.062;2022-12-18T02:31:57;98017.09;;;-8.60;62.88
76611;BME280;65503;48.534;9.062;2022-12-18T02:34:37;98010.19;;;-8.58;62.94
76611;BME280;65503;48.534;9.062;2022-12-18T02:37:10;98027.97;;;-8.56;62.76
76611;BME280;65503;48.534;9.062;2022-12-18T02:39:40;98023.91;;;-8.45;62.50
76611;BME280;65503;48.534;9.062;2022-12-18T02:42:08;98024.28;;;-8.37;62.66
76611;BME280;65503;48.534;9.062;2022-12-18T02:44:43;98026.28;;;-8.42;62.68
76611;BME280;65503;48.534;9.062;2022-12-18T02:47:14;98032.69;;;-8.34;62.73
76611;BME280;65503;48.534;9.062;2022-12-18T02:50:20;98026.50;;;-8.30;62.52
76611;BME280;65503;48.534;9.062;2022-12-18T02:56:14;98029.16;;;-8.18;63.09
76611;BME280;65503;48.534;9.062;2022-12-18T02:59:04;98032.34;;;-8.14;62.53
76611;BME280;65503;48.534;9.062;2022-12-18T03:04:09;98033.63;;;-8.21;62.40
76611;BME280;65503;48.534;9.062;2022-12-18T03:06:42;98025.06;;;-8.20;62.44
76611;BME280;65503;48.534;9.062;2022-12-18T03:09:16;98021.13;;;-8.26;62.11
76611;BME280;65503;48.534;9.062;2022-12-18T03:11:48;98016.47;;;-8.19;62.72
76611;BME280;65503;48.534;9.062;2022-12-18T03:14:37;98022.09;;;-8.28;62.63
76611;BME280;65503;48.534;9.062;2022-12-18T03:17:08;98020.66;;;-8.32;62.48
76611;BME280;65503;48.534;9.062;2022-12-18T03:19:37;98019.03;;;-8.33;62.27
76611;BME280;65503;48.534;9.062;2022-12-18T03:22:07;98022.47;;;-8.34;62.35
76611;BME280;65503;48.534;9.062;2022-12-18T03:24:35;98027.66;;;-8.36;62.47
76611;BME280;65503;48.534;9.062;2022-12-18T03:27:11;98027.44;;;-8.47;62.35
76611;BME280;65503;48.534;9.062;2022-12-18T03:29:53;98027.28;;;-8.60;62.57
76611;BME280;65503;48.534;9.062;2022-12-18T03:32:29;98022.38;;;-8.63;62.56
76611;BME280;65503;48.534;9.062;2022-12-18T03:35:00;98030.94;;;-8.64;62.51
76611;BME280;65503;48.534;9.062;2022-12-18T03:37:31;98025.81;;;-8.64;62.81
76611;BME280;65503;48.534;9.062;2022-12-18T03:39:57;98037.03;;;-8.66;62.73
76611;BME280;65503;48.534;9.062;2022-12-18T03:42:32;98028.00;;;-8.72;62.75
76611;BME280;65503;48.534;9.062;2022-12-18T03:45:11;98033.81;;;-8.70;62.79
76611;BME280;65503;48.534;9.062;2022-12-18T03:47:52;98031.59;;;-8.76;62.42
76611;BME280;65503;48.534;9.062;2022-12-18T03:50:23;98035.41;;;-8.83;62.87
76611;BME280;65503;48.534;9.062;2022-12-18T03:55:27;98030.97;;;-8.95;62.81
76611;BME280;65503;48.534;9.062;2022-12-18T03:57:56;98025.88;;;-8.95;63.05
76611;BME280;65503;48.534;9.062;2022-12-18T04:00:23;98024.03;;;-8.93;62.58
76611;BME280;65503;48.534;9.062;2022-12-18T04:02:52;98017.66;;;-9.00;62.35
76611;BME280;65503;48.534;9.062;2022-12-18T04:05:21;98024.72;;;-8.90;62.54
76611;BME280;65503;48.534;9.062;2022-12-18T04:07:50;98013.13;;;-8.95;62.94
76611;BME280;65503;48.534;9.062;2022-12-18T04:10:18;98017.47;;;-8.97;62.90
76611;BME280;65503;48.534;9.062;2022-12-18T04:12:45;98020.28;;;-9.02;62.47
76611;BME280;65503;48.534;9.062;2022-12-18T04:15:12;98020.53;;;-9.06;62.41
76611;BME280;65503;48.534;9.062;2022-12-18T04:17:46;98026.69;;;-9.10;62.48
76611;BME280;65503;48.534;9.062;2022-12-18T04:20:13;98030.16;;;-9.11;62.69
76611;BME280;65503;48.534;9.062;2022-12-18T04:22:39;98038.84;;;-9.15;62.63
76611;BME280;65503;48.534;9.062;2022-12-18T04:25:06;98034.50;;;-9.13;62.99
76611;BME280;65503;48.534;9.062;2022-12-18T04:27:33;98031.78;;;-9.10;62.94
76611;BME280;65503;48.534;9.062;2022-12-18T04:30:00;98032.09;;;-9.16;63.46
76611;BME280;65503;48.534;9.062;2022-12-18T04:32:27;98042.66;;;-9.23;63.35
76611;BME280;65503;48.534;9.062;2022-12-18T04:34:53;98040.63;;;-9.33;63.53
76611;BME280;65503;48.534;9.062;2022-12-18T04:37:20;98035.38;;;-9.30;63.78
76611;BME280;65503;48.534;9.062;2022-12-18T04:39:46;98040.66;;;-9.02;64.41
76611;BME280;65503;48.534;9.062;2022-12-18T04:42:13;98050.38;;;-9.08;65.01
76611;BME280;65503;48.534;9.062;2022-12-18T04:44:40;98045.94;;;-8.89;64.91
76611;BME280;65503;48.534;9.062;2022-12-18T04:47:06;98043.06;;;-8.83;65.59
76611;BME280;65503;48.534;9.062;2022-12-18T04:49:33;98039.34;;;-8.93;65.51
76611;BME280;65503;48.534;9.062;2022-12-18T04:52:00;98040.81;;;-9.05;66.48
76611;BME280;65503;48.534;9.062;2022-12-18T04:54:26;98022.44;;;-8.94;66.39
76611;BME280;65503;48.534;9.062;2022-12-18T04:56:53;98010.31;;;-8.75;66.08
76611;BME280;65503;48.534;9.062;2022-12-18T04:59:20;98009.91;;;-8.83;65.35
76611;BME280;65503;48.534;9.062;2022-12-18T05:01:47;98022.44;;;-8.94;65.06
76611;BME280;65503;48.534;9.062;2022-12-18T05:04:13;98023.91;;;-8.90;64.65
76611;BME280;65503;48.534;9.062;2022-12-18T05:06:40;98023.91;;;-8.90;64.95
76611;BME280;65503;48.534;9.062;2022-12-18T05:09:07;98017.81;;;-9.03;64.36
76611;BME280;65503;48.534;9.062;2022-12-18T05:11:34;98023.22;;;-9.09;64.44
76611;BME280;65503;48.534;9.062;2022-12-18T05:14:01;98024.06;;;-9.09;64.59
76611;BME280;65503;48.534;9.062;2022-12-18T05:16:28;98021.09;;;-9.01;64.16
76611;BME280;65503;48.534;9.062;2022-12-18T05:18:54;98021.09;;;-9.01;63.58
76611;BME280;65503;48.534;9.062;2022-12-18T05:21:21;98020.94;;;-8.98;63.80
76611;BME280;65503;48.534;9.062;2022-12-18T05:23:47;98025.31;;;-9.00;63.57
76611;BME280;65503;48.534;9.062;2022-12-18T05:26:16;98021.09;;;-9.01;63.82
76611;BME280;65503;48.534;9.062;2022-12-18T05:28:44;98014.69;;;-9.08;63.10
76611;BME280;65503;48.534;9.062;2022-12-18T05:31:10;98025.22;;;-9.14;63.05
76611;BME280;65503;48.534;9.062;2022-12-18T05:33:37;98016.66;;;-9.13;63.08
76611;BME280;65503;48.534;9.062;2022-12-18T05:36:06;98019.47;;;-9.18;62.74
76611;BME280;65503;48.534;9.062;2022-12-18T05:38:36;98028.81;;;-9.18;63.23
76611;BME280;65503;48.534;9.062;2022-12-18T05:41:03;98029.16;;;-9.25;63.59
76611;BME280;65503;48.534;9.062;2022-12-18T05:43:31;98033.22;;;-9.38;63.03
76611;BME280;65503;48.534;9.062;2022-12-18T05:45:57;98032.97;;;-9.49;63.14
76611;BME280;65503;48.534;9.062;2022-12-18T05:48:24;98022.47;;;-9.43;63.34
76611;BME280;65503;48.534;9.062;2022-12-18T05:50:51;98023.03;;;-9.38;62.94
76611;BME280;65503;48.534;9.062;2022-12-18T05:53:19;98023.03;;;-9.38;62.76
76611;BME280;65503;48.534;9.062;2022-12-18T05:55:47;98018.72;;;-9.36;62.89
76611;BME280;65503;48.534;9.062;2022-12-18T05:58:14;98017.13;;;-9.38;62.48
76611;BME280;65503;48.534;9.062;2022-12-18T06:00:45;98022.41;;;-9.41;62.96
76611;BME280;65503;48.534;9.062;2022-12-18T06:03:13;98021.72;;;-9.45;62.85
76611;BME280;65503;48.534;9.062;2022-12-18T06:05:43;98021.88;;;-9.48;62.96
76611;BME280;65503;48.534;9.062;2022-12-18T06:08:11;98027.13;;;-9.51;62.65
76611;BME280;65503;48.534;9.062;2022-12-18T06:10:38;98025.66;;;-9.55;62.81
76611;BME280;65503;48.534;9.062;2022-12-18T06:13:05;98029.25;;;-9.59;63.07
76611;BME280;65503;48.534;9.062;2022-12-18T06:15:32;98027.63;;;-9.60;63.02
76611;BME280;65503;48.534;9.062;2022-12-18T06:18:00;98035.19;;;-9.58;63.70
76611;BME280;65503;48.534;9.062;2022-12-18T06:20:27;98040.63;;;-9.49;63.31
76611;BME280;65503;48.534;9.062;2022-12-18T06:22:59;98038.34;;;-9.38;64.10
76611;BME280;65503;48.534;9.062;2022-12-18T06:25:25;98041.78;;;-9.39;64.68
76611;BME280;65503;48.534;9.062;2022-12-18T06:27:52;98042.59;;;-9.38;64.36
76611;BME280;65503;48.534;9.062;2022-12-18T06:30:19;98045.84;;;-9.35;64.27
76611;BME280;65503;48.534;9.062;2022-12-18T06:32:45;98045.06;;;-9.37;64.12
76611;BME280;65503;48.534;9.062;2022-12-18T06:35:18;98061.69;;;-9.30;64.29
76611;BME280;65503;48.534;9.062;2022-12-18T06:37:46;98065.28;;;-9.34;64.17
76611;BME280;65503;48.534;9.062;2022-12-18T06:40:12;98065.44;;;-9.37;64.10
76611;BME280;65503;48.534;9.062;2022-12-18T06:42:39;98068.91;;;-9.38;64.21
76611;BME280;65503;48.534;9.062;2022-12-18T06:45:06;98074.94;;;-9.56;65.12
76611;BME280;65503;48.534;9.062;2022-12-18T06:47:32;98073.72;;;-9.49;65.75
76611;BME280;65503;48.534;9.062;2022-12-18T06:49:59;98069.38;;;-9.47;65.85
76611;BME280;65503;48.534;9.062;2022-12-18T06:52:25;98074.78;;;-9.53;66.81
76611;BME280;65503;48.534;9.062;2022-12-18T06:54:52;98070.53;;;-9.37;65.57
76611;BME280;65503;48.534;9.062;2022-12-18T06:57:18;98078.63;;;-9.29;66.00
76611;BME280;65503;48.534;9.062;2022-12-18T06:59:45;98079.84;;;-9.36;65.95
76611;BME280;65503;48.534;9.062;2022-12-18T07:02:12;98084.06;;;-9.03;65.04
76611;BME280;65503;48.534;9.062;2022-12-18T07:04:39;98091.56;;;-9.00;64.70
76611;BME280;65503;48.534;9.062;2022-12-18T07:07:06;98101.25;;;-8.91;64.02
76611;BME280;65503;48.534;9.062;2022-12-18T07:09:32;98087.38;;;-8.86;63.38
76611;BME280;65503;48.534;9.062;2022-12-18T07:11:59;98103.81;;;-8.91;63.12
76611;BME280;65503;48.534;9.062;2022-12-18T07:14:25;98102.66;;;-9.01;63.27
76611;BME280;65503;48.534;9.062;2022-12-18T07:16:52;98105.03;;;-8.98;63.14
76611;BME280;65503;48.534;9.062;2022-12-18T07:19:19;98104.94;;;-9.12;63.81
76611;BME280;65503;48.534;9.062;2022-12-18T07:21:45;98109.56;;;-9.03;63.07
76611;BME280;65503;48.534;9.062;2022-12-18T07:24:12;98112.91;;;-9.18;63.63
76611;BME280;65503;48.534;9.062;2022-12-18T07:26:38;98103.38;;;-9.48;65.44
76611;BME280;65503;48.534;9.062;2022-12-18T07:29:05;98107.03;;;-9.36;65.14
76611;BME280;65503;48.534;9.062;2022-12-18T07:31:31;98106.91;;;-9.17;64.55
76611;BME280;65503;48.534;9.062;2022-12-18T07:33:58;98114.66;;;-8.88;64.41
76611;BME280;65503;48.534;9.062;2022-12-18T07:36:25;98111.19;;;-9.02;64.73
76611;BME280;65503;48.534;9.062;2022-12-18T07:38:51;98097.50;;;-9.33;66.33
76611;BME280;65503;48.534;9.062;2022-12-18T07:41:21;98096.56;;;-9.14;65.69
76611;BME280;65503;48.534;9.062;2022-12-18T07:43:48;98107.41;;;-9.11;65.27
76611;BME280;65503;48.534;9.062;2022-12-18T07:46:16;98100.44;;;-8.76;64.26
76611;BME280;65503;48.534;9.062;2022-12-18T07:48:43;98109.59;;;-8.72;63.98
76611;BME280;65503;48.534;9.062;2022-12-18T07:51:14;98101.84;;;-8.86;64.11
76611;BME280;65503;48.534;9.062;2022-12-18T07:53:42;98097.81;;;-8.59;63.29
76611;BME280;65503;48.534;9.062;2022-12-18T07:56:10;98102.50;;;-8.51;62.68
76611;BME280;65503;48.534;9.062;2022-12-18T07:58:57;98102.66;;;-8.39;62.29
76611;BME280;65503;48.534;9.062;2022-12-18T08:01:24;98108.69;;;-8.25;61.82
76611;BME280;65503;48.534;9.062;2022-12-18T08:03:51;98107.84;;;-8.10;61.70
76611;BME280;65503;48.534;9.062;2022-12-18T08:06:18;98111.50;;;-8.00;62.06
76611;BME280;65503;48.534;9.062;2022-12-18T08:08:54;98109.38;;;-7.92;61.59
76611;BME280;65503;48.534;9.062;2022-12-18T08:11:22;98110.59;;;-7.69;61.15
76611;BME280;65503;48.534;9.062;2022-12-18T08:13:49;98113.78;;;-7.66;60.75
76611;BME280;65503;48.534;9.062;2022-12-18T08:16:17;98109.44;;;-7.49;60.81
76611;BME280;65503;48.534;9.062;2022-12-18T08:18:44;98120.25;;;-7.02;61.51
76611;BME280;65503;48.534;9.062;2022-12-18T08:21:13;98119.00;;;-6.68;60.00
76611;BME280;65503;48.534;9.062;2022-12-18T08:23:40;98126.72;;;-6.41;60.29
76611;BME280;65503;48.534;9.062;2022-12-18T08:26:10;98114.16;;;-6.05;58.70
76611;BME280;65503;48.534;9.062;2022-12-18T08:28:36;98124.63;;;-5.82;59.05
76611;BME280;65503;48.534;9.062;2022-12-18T08:31:03;98120.34;;;-5.57;59.79
76611;BME280;65503;48.534;9.062;2022-12-18T08:33:30;98120.78;;;-5.37;58.84
76611;BME280;65503;48.534;9.062;2022-12-18T08:35:58;98126.94;;;-5.15;54.73
76611;BME280;65503;48.534;9.062;2022-12-18T08:38:25;98126.31;;;-4.80;56.93
76611;BME280;65503;48.534;9.062;2022-12-18T08:41:18;98125.81;;;-4.49;56.64
76611;BME280;65503;48.534;9.062;2022-12-18T08:43:44;98128.78;;;-4.19;55.52
76611;BME280;65503;48.534;9.062;2022-12-18T08:46:40;98127.78;;;-3.81;55.42
76611;BME280;65503;48.534;9.062;2022-12-18T08:49:08;98134.03;;;-3.26;54.88
76611;BME280;65503;48.534;9.062;2022-12-18T08:51:35;98135.59;;;-2.90;54.29
76611;BME280;65503;48.534;9.062;2022-12-18T08:54:02;98125.88;;;-2.76;54.38
76611;BME280;65503;48.534;9.062;2022-12-18T08:56:31;98122.34;;;-2.53;52.28
76611;BME280;65503;48.534;9.062;2022-12-18T08:58:58;98112.16;;;-2.54;51.75
76611;BME280;65503;48.534;9.062;2022-12-18T09:01:25;98112.25;;;-2.44;49.68
76611;BME280;65503;48.534;9.062;2022-12-18T09:03:51;98105.13;;;-2.52;51.07
76611;BME280;65503;48.534;9.062;2022-12-18T09:06:20;98106.06;;;-2.42;49.45
76611;BME280;65503;48.534;9.062;2022-12-18T09:08:46;98101.03;;;-2.55;51.05
76611;BME280;65503;48.534;9.062;2022-12-18T09:11:22;98107.13;;;-2.78;51.47
76611;BME280;65503;48.534;9.062;2022-12-18T09:13:50;98102.44;;;-2.73;51.47
76611;BME280;65503;48.534;9.062;2022-12-18T09:16:16;98102.81;;;-2.66;53.01
76611;BME280;65503;48.534;9.062;2022-12-18T09:18:43;98109.03;;;-2.69;52.92
76611;BME280;65503;48.534;9.062;2022-12-18T09:21:18;98100.13;;;-2.65;51.67
76611;BME280;65503;48.534;9.062;2022-12-18T09:23:55;98101.63;;;-2.73;52.86
76611;BME280;65503;48.534;9.062;2022-12-18T09:26:22;98094.97;;;-2.65;50.92
76611;BME280;65503;48.534;9.062;2022-12-18T09:28:50;98088.41;;;-2.69;53.84
76611;BME280;65503;48.534;9.062;2022-12-18T09:31:18;98093.56;;;-2.69;53.30
76611;BME280;65503;48.534;9.062;2022-12-18T09:33:45;98093.34;;;-2.77;53.45
76611;BME280;65503;48.534;9.062;2022-12-18T09:36:15;98095.91;;;-2.77;53.14
76611;BME280;65503;48.534;9.062;2022-12-18T09:38:42;98094.88;;;-2.74;53.27
76611;BME280;65503;48.534;9.062;2022-12-18T09:43:48;98075.03;;;-2.52;55.71
76611;BME280;65503;48.534;9.062;2022-12-18T09:46:21;98082.38;;;-2.36;55.09
76611;BME280;65503;48.534;9.062;2022-12-18T09:48:53;98083.66;;;-2.30;55.06
76611;BME280;65503;48.534;9.062;2022-12-18T09:51:35;98086.09;;;-2.18;53.82
76611;BME280;65503;48.534;9.062;2022-12-18T09:54:36;98091.41;;;-2.10;54.51
76611;BME280;65503;48.534;9.062;2022-12-18T09:57:04;98087.84;;;-2.18;54.48
76611;BME280;65503;48.534;9.062;2022-12-18T09:59:36;98087.56;;;-2.15;55.21
76611;BME280;65503;48.534;9.062;2022-12-18T10:02:32;98087.25;;;-2.22;55.27
76611;BME280;65503;48.534;9.062;2022-12-18T10:05:13;98088.31;;;-2.24;56.26
76611;BME280;65503;48.534;9.062;2022-12-18T10:07:48;98093.81;;;-2.18;56.33
76611;BME280;65503;48.534;9.062;2022-12-18T10:13:19;98097.41;;;-2.09;56.47
76611;BME280;65503;48.534;9.062;2022-12-18T10:19:17;98089.03;;;-2.22;56.23
76611;BME280;65503;48.534;9.062;2022-12-18T10:24:40;98097.13;;;-2.38;57.23
76611;BME280;65503;48.534;9.062;2022-12-18T10:27:23;98092.31;;;-2.31;56.55
76611;BME280;65503;48.534;9.062;2022-12-18T10:29:50;98083.66;;;-2.30;57.07
76611;BME280;65503;48.534;9.062;2022-12-18T10:32:20;98082.34;;;-2.25;57.07
76611;BME280;65503;48.534;9.062;2022-12-18T10:34:47;98079.16;;;-2.17;57.37
76611;BME280;65503;48.534;9.062;2022-12-18T10:37:20;98084.97;;;-2.04;56.97
76611;BME280;65503;48.534;9.062;2022-12-18T10:40:06;98088.59;;;-1.75;57.43
76611;BME280;65503;48.534;9.062;2022-12-18T10:42:33;98083.25;;;-1.83;56.39
76611;BME280;65503;48.534;9.062;2022-12-18T10:45:15;98087.38;;;-1.71;57.26
76611;BME280;65503;48.534;9.062;2022-12-18T10:47:45;98083.88;;;-1.70;57.49
76611;BME280;65503;48.534;9.062;2022-12-18T10:50:23;98086.66;;;-1.61;57.47
76611;BME280;65503;48.534;9.062;2022-12-18T10:53:19;98077.97;;;-1.60;57.00
76611;BME280;65503;48.534;9.062;2022-12-18T10:55:46;98080.50;;;-1.49;58.28
76611;BME280;65503;48.534;9.062;2022-12-18T10:58:36;98079.47;;;-1.37;57.71
76611;BME280;65503;48.534;9.062;2022-12-18T11:06:10;98059.41;;;-1.24;55.92
76611;BME280;65503;48.534;9.062;2022-12-18T11:08:37;98062.16;;;-1.26;55.33
76611;BME280;65503;48.534;9.062;2022-12-18T11:11:14;98061.34;;;-1.26;55.17
76611;BME280;65503;48.534;9.062;2022-12-18T11:14:04;98054.41;;;-1.26;54.87
76611;BME280;65503;48.534;9.062;2022-12-18T11:16:36;98053.59;;;-1.26;55.60
76611;BME280;65503;48.534;9.062;2022-12-18T11:19:33;98053.06;;;-1.20;56.29
76611;BME280;65503;48.534;9.062;2022-12-18T11:22:01;98044.28;;;-1.08;57.27
76611;BME280;65503;48.534;9.062;2022-12-18T11:24:34;98041.34;;;-0.94;57.08
76611;BME280;65503;48.534;9.062;2022-12-18T11:27:03;98037.03;;;-0.84;57.37
76611;BME280;65503;48.534;9.062;2022-12-18T11:29:38;98041.41;;;-0.74;57.60
76611;BME280;65503;48.534;9.062;2022-12-18T11:34:44;98038.19;;;-0.57;56.91
76611;BME280;65503;48.534;9.062;2022-12-18T11:37:13;98039.28;;;-0.50;57.65
76611;BME280;65503;48.534;9.062;2022-12-18T11:39:50;98033.84;;;-0.47;57.82
76611;BME280;65503;48.534;9.062;2022-12-18T11:42:34;98021.06;;;-0.39;58.67
76611;BME280;65503;48.534;9.062;2022-12-18T11:47:44;98022.16;;;-0.32;57.65
76611;BME280;65503;48.534;9.062;2022-12-18T11:50:21;98017.53;;;-0.19;58.23
76611;BME280;65503;48.534;9.062;2022-12-18T11:52:50;98025.16;;;-0.08;58.49
76611;BME280;65503;48.534;9.062;2022-12-18T11:55:37;98019.97;;;0.12;59.85
76611;BME280;65503;48.534;9.062;2022-12-18T12:01:20;98018.53;;;0.46;60.37
76611;BME280;65503;48.534;9.062;2022-12-18T12:07:00;98022.44;;;0.69;58.60
76611;BME280;65503;48.534;9.062;2022-12-18T12:09:45;98021.09;;;0.65;58.38
76611;BME280;65503;48.534;9.062;2022-12-18T12:15:29;98006.81;;;0.89;58.69
76611;BME280;65503;48.534;9.062;2022-12-18T12:21:07;97993.78;;;1.08;60.00
76611;BME280;65503;48.534;9.062;2022-12-18T12:39:46;97989.47;;;0.99;57.99
76611;BME280;65503;48.534;9.062;2022-12-18T12:42:23;97978.81;;;1.02;57.67
76611;BME280;65503;48.534;9.062;2022-12-18T12:45:17;97994.31;;;1.11;58.21
76611;BME280;65503;48.534;9.062;2022-12-18T12:47:46;97995.38;;;1.18;57.63
76611;BME280;65503;48.534;9.062;2022-12-18T12:50:19;97999.88;;;1.16;56.93
76611;BME280;65503;48.534;9.062;2022-12-18T12:52:51;98000.31;;;1.12;57.21
76611;BME280;65503;48.534;9.062;2022-12-18T12:55:25;98011.06;;;1.17;57.26
76611;BME280;65503;48.534;9.062;2022-12-18T12:58:04;98004.09;;;1.17;57.38
76611;BME280;65503;48.534;9.062;2022-12-18T13:00:40;98007.88;;;1.23;57.36
76611;BME280;65503;48.534;9.062;2022-12-18T13:03:35;98008.97;;;1.20;56.76
76611;BME280;65503;48.534;9.062;2022-12-18T13:09:04;98026.53;;;0.99;57.42
76611;BME280;65503;48.534;9.062;2022-12-18T13:11:38;98025.47;;;1.02;57.83
76611;BME280;65503;48.534;9.062;2022-12-18T13:14:34;98032.78;;;1.06;57.93
76611;BME280;65503;48.534;9.062;2022-12-18T13:20:06;98026.78;;;1.06;57.44
76611;BME280;65503;48.534;9.062;2022-12-18T13:22:37;98024.81;;;0.90;57.89
76611;BME280;65503;48.534;9.062;2022-12-18T13:28:09;98026.09;;;0.76;58.27
76611;BME280;65503;48.534;9.062;2022-12-18T13:36:09;98020.44;;;0.54;57.85
76611;BME280;65503;48.534;9.062;2022-12-18T13:40:59;98017.75;;;0.46;57.86
76611;BME280;65503;48.534;9.062;2022-12-18T13:43:54;98008.75;;;0.40;58.14
76611;BME280;65503;48.534;9.062;2022-12-18T13:46:30;98009.03;;;0.37;58.32
76611;BME280;65503;48.534;9.062;2022-12-18T13:51:48;98007.13;;;0.39;58.21
76611;BME280;65503;48.534;9.062;2022-12-18T13:54:40;98005.53;;;0.19;58.31
76611;BME280;65503;48.534;9.062;2022-12-18T13:57:30;98006.06;;;0.13;58.00
76611;BME280;65503;48.534;9.062;2022-12-18T13:59:57;98002.81;;;0.01;58.39
76611;BME280;65503;48.534;9.062;2022-12-18T14:02:26;98003.63;;;0.02;58.73
76611;BME280;65503;48.534;9.062;2022-12-18T14:04:54;98000.38;;;-0.01;59.73
76611;BME280;65503;48.534;9.062;2022-12-18T14:07:24;97999.00;;;-0.05;60.06
76611;BME280;65503;48.534;9.062;2022-12-18T14:09:54;98004.19;;;-0.05;60.02
76611;BME280;65503;48.534;9.062;2022-12-18T14:12:38;98006.09;;;-0.07;60.58
76611;BME280;65503;48.534;9.062;2022-12-18T14:17:57;98006.09;;;-0.07;61.28
76611;BME280;65503;48.534;9.062;2022-12-18T14:20:27;98002.84;;;-0.09;61.20
76611;BME280;65503;48.534;9.062;2022-12-18T14:22:56;98003.53;;;-0.07;61.06
76611;BME280;65503;48.534;9.062;2022-12-18T14:25:25;98005.03;;;-0.14;60.94
76611;BME280;65503;48.534;9.062;2022-12-18T14:30:39;97999.56;;;-0.20;61.36
76611;BME280;65503;48.534;9.062;2022-12-18T14:33:18;98002.56;;;-0.34;61.24
76611;BME280;65503;48.534;9.062;2022-12-18T14:36:04;98000.38;;;-0.39;61.51
76611;BME280;65503;48.534;9.062;2022-12-18T14:38:36;98001.19;;;-0.48;62.31
76611;BME280;65503;48.534;9.062;2022-12-18T14:41:09;98004.72;;;-0.49;62.65
76611;BME280;65503;48.534;9.062;2022-12-18T14:43:39;98000.25;;;-0.47;61.94
76611;BME280;65503;48.534;9.062;2022-12-18T14:49:02;98002.69;;;-0.55;62.26
76611;BME280;65503;48.534;9.062;2022-12-18T14:51:31;98007.44;;;-0.60;62.90
76611;BME280;65503;48.534;9.062;2022-12-18T14:54:04;98001.16;;;-0.67;62.86
76611;BME280;65503;48.534;9.062;2022-12-18T14:56:35;97999.78;;;-0.71;63.07
76611;BME280;65503;48.534;9.062;2022-12-18T14:59:05;98001.16;;;-0.77;62.89
76611;BME280;65503;48.534;9.062;2022-12-18T15:01:37;98000.59;;;-0.80;62.79